sensor_id;sensor_type;location;lat;lon;timestamp;P1;durP1;ratioP1;P2;durP2;ratioP2
15643;SDS011;7921;43.586;1.408;2022-08-20T00:00:36;10.93;;;3.40;;
15643;SDS011;7921;43.586;1.408;2022-08-20T00:03:12;5.82;;;4.05;;
15643;SDS011;7921;43.586;1.408;2022-08-20T00:05:44;3.72;;;3.42;;
15643;SDS011;7921;43.586;1.408;2022-08-20T00:08:16;4.32;;;3.92;;
15643;SDS011;7921;43.586;1.408;2022-08-20T00:10:43;3.80;;;3.50;;
15643;SDS011;7921;43.586;1.408;2022-08-20T00:13:10;4.00;;;3.70;;
15643;SDS011;7921;43.586;1.408;2022-08-20T00:15:37;3.85;;;3.58;;
15643;SDS011;7921;43.586;1.408;2022-08-20T00:18:05;4.13;;;3.80;;
15643;SDS011;7921;43.586;1.408;2022-08-20T00:20:32;4.10;;;3.80;;
15643;SDS011;7921;43.586;1.408;2022-08-20T00:22:59;3.88;;;3.58;;
15643;SDS011;7921;43.586;1.408;2022-08-20T00:25:26;4.10;;;3.70;;
15643;SDS011;7921;43.586;1.408;2022-08-20T00:27:53;6.72;;;3.97;;
15643;SDS011;7921;43.586;1.408;2022-08-20T00:30:18;4.75;;;3.97;;
15643;SDS011;7921;43.586;1.408;2022-08-20T00:35:20;4.07;;;3.78;;
15643;SDS011;7921;43.586;1.408;2022-08-20T00:37:46;4.55;;;4.15;;
15643;SDS011;7921;43.586;1.408;2022-08-20T00:40:13;4.65;;;3.70;;
15643;SDS011;7921;43.586;1.408;2022-08-20T00:42:45;4.45;;;3.53;;
15643;SDS011;7921;43.586;1.408;2022-08-20T00:45:16;3.92;;;3.60;;
15643;SDS011;7921;43.586;1.408;2022-08-20T00:47:43;4.10;;;3.80;;
15643;SDS011;7921;43.586;1.408;2022-08-20T00:50:19;3.55;;;3.35;;
15643;SDS011;7921;43.586;1.408;2022-08-20T00:52:58;4.53;;;3.60;;
15643;SDS011;7921;43.586;1.408;2022-08-20T00:55:26;3.78;;;3.42;;
15643;SDS011;7921;43.586;1.408;2022-08-20T00:57:53;3.90;;;3.60;;
15643;SDS011;7921;43.586;1.408;2022-08-20T01:00:23;4.22;;;3.83;;
15643;SDS011;7921;43.586;1.408;2022-08-20T01:02:51;3.40;;;3.10;;
15643;SDS011;7921;43.586;1.408;2022-08-20T01:05:17;3.72;;;3.42;;
15643;SDS011;7921;43.586;1.408;2022-08-20T01:07:43;4.13;;;3.47;;
15643;SDS011;7921;43.586;1.408;2022-08-20T01:13:02;3.60;;;3.30;;
15643;SDS011;7921;43.586;1.408;2022-08-20T01:15:35;3.95;;;3.63;;
15643;SDS011;7921;43.586;1.408;2022-08-20T01:18:05;3.75;;;3.45;;
15643;SDS011;7921;43.586;1.408;2022-08-20T01:20:35;3.95;;;3.58;;
15643;SDS011;7921;43.586;1.408;2022-08-20T01:31:05;3.53;;;3.33;;
15643;SDS011;7921;43.586;1.408;2022-08-20T01:33:33;3.88;;;3.40;;
15643;SDS011;7921;43.586;1.408;2022-08-20T01:35:58;4.75;;;4.05;;
15643;SDS011;7921;43.586;1.408;2022-08-20T01:38:24;4.00;;;3.70;;
15643;SDS011;7921;43.586;1.408;2022-08-20T01:41:03;3.65;;;3.35;;
15643;SDS011;7921;43.586;1.408;2022-08-20T01:43:48;3.75;;;3.45;;
15643;SDS011;7921;43.586;1.408;2022-08-20T01:46:15;3.65;;;3.30;;
15643;SDS011;7921;43.586;1.408;2022-08-20T01:48:41;3.90;;;3.53;;
15643;SDS011;7921;43.586;1.408;2022-08-20T01:51:12;3.60;;;3.30;;
15643;SDS011;7921;43.586;1.408;2022-08-20T01:53:42;4.13;;;3.40;;
15643;SDS011;7921;43.586;1.408;2022-08-20T01:56:12;4.80;;;4.25;;
15643;SDS011;7921;43.586;1.408;2022-08-20T01:58:41;3.72;;;3.50;;
15643;SDS011;7921;43.586;1.408;2022-08-20T02:01:17;3.75;;;3.33;;
15643;SDS011;7921;43.586;1.408;2022-08-20T02:03:44;4.10;;;3.72;;
15643;SDS011;7921;43.586;1.408;2022-08-20T02:06:09;3.83;;;3.53;;
15643;SDS011;7921;43.586;1.408;2022-08-20T02:08:35;3.53;;;3.22;;
15643;SDS011;7921;43.586;1.408;2022-08-20T02:11:00;3.80;;;3.50;;
15643;SDS011;7921;43.586;1.408;2022-08-20T02:13:26;3.80;;;3.50;;
15643;SDS011;7921;43.586;1.408;2022-08-20T02:15:51;3.22;;;3.03;;
15643;SDS011;7921;43.586;1.408;2022-08-20T02:18:17;5.40;;;3.45;;
15643;SDS011;7921;43.586;1.408;2022-08-20T02:20:44;3.63;;;3.33;;
15643;SDS011;7921;43.586;1.408;2022-08-20T02:23:10;3.45;;;3.22;;
15643;SDS011;7921;43.586;1.408;2022-08-20T02:25:36;3.38;;;3.17;;
15643;SDS011;7921;43.586;1.408;2022-08-20T02:28:05;3.33;;;3.03;;
15643;SDS011;7921;43.586;1.408;2022-08-20T02:30:34;3.30;;;3.10;;
15643;SDS011;7921;43.586;1.408;2022-08-20T02:33:03;7.22;;;3.15;;
15643;SDS011;7921;43.586;1.408;2022-08-20T02:35:31;3.30;;;3.05;;
15643;SDS011;7921;43.586;1.408;2022-08-20T02:37:57;3.75;;;3.33;;
15643;SDS011;7921;43.586;1.408;2022-08-20T02:40:23;3.58;;;3.30;;
15643;SDS011;7921;43.586;1.408;2022-08-20T02:42:50;3.80;;;3.40;;
15643;SDS011;7921;43.586;1.408;2022-08-20T02:45:16;3.28;;;2.95;;
15643;SDS011;7921;43.586;1.408;2022-08-20T02:47:43;3.50;;;3.28;;
15643;SDS011;7921;43.586;1.408;2022-08-20T02:50:13;4.22;;;3.35;;
15643;SDS011;7921;43.586;1.408;2022-08-20T02:52:41;3.25;;;3.05;;
15643;SDS011;7921;43.586;1.408;2022-08-20T02:55:07;3.25;;;2.97;;
15643;SDS011;7921;43.586;1.408;2022-08-20T02:57:33;4.68;;;2.90;;
15643;SDS011;7921;43.586;1.408;2022-08-20T02:59:58;3.50;;;3.17;;
15643;SDS011;7921;43.586;1.408;2022-08-20T03:02:24;3.10;;;2.90;;
15643;SDS011;7921;43.586;1.408;2022-08-20T03:04:49;3.25;;;2.95;;
15643;SDS011;7921;43.586;1.408;2022-08-20T03:07:15;3.88;;;3.17;;
15643;SDS011;7921;43.586;1.408;2022-08-20T03:09:40;3.78;;;3.00;;
15643;SDS011;7921;43.586;1.408;2022-08-20T03:12:06;3.95;;;3.55;;
15643;SDS011;7921;43.586;1.408;2022-08-20T03:14:32;3.25;;;2.95;;
15643;SDS011;7921;43.586;1.408;2022-08-20T03:16:58;3.05;;;2.85;;
15643;SDS011;7921;43.586;1.408;2022-08-20T03:19:24;4.60;;;2.95;;
15643;SDS011;7921;43.586;1.408;2022-08-20T03:21:49;3.42;;;3.13;;
15643;SDS011;7921;43.586;1.408;2022-08-20T03:24:15;3.22;;;2.92;;
15643;SDS011;7921;43.586;1.408;2022-08-20T03:26:40;3.75;;;3.10;;
15643;SDS011;7921;43.586;1.408;2022-08-20T03:29:06;3.30;;;3.10;;
15643;SDS011;7921;43.586;1.408;2022-08-20T03:31:32;3.05;;;2.78;;
15643;SDS011;7921;43.586;1.408;2022-08-20T03:33:57;3.45;;;3.15;;
15643;SDS011;7921;43.586;1.408;2022-08-20T03:36:23;3.00;;;2.80;;
15643;SDS011;7921;43.586;1.408;2022-08-20T03:38:49;3.00;;;2.80;;
15643;SDS011;7921;43.586;1.408;2022-08-20T03:41:15;3.15;;;2.92;;
15643;SDS011;7921;43.586;1.408;2022-08-20T03:43:40;3.45;;;3.15;;
15643;SDS011;7921;43.586;1.408;2022-08-20T03:46:06;3.47;;;2.80;;
15643;SDS011;7921;43.586;1.408;2022-08-20T03:48:32;2.85;;;2.65;;
15643;SDS011;7921;43.586;1.408;2022-08-20T03:50:57;3.45;;;3.13;;
15643;SDS011;7921;43.586;1.408;2022-08-20T03:53:25;3.08;;;2.88;;
15643;SDS011;7921;43.586;1.408;2022-08-20T03:55:55;3.28;;;3.08;;
15643;SDS011;7921;43.586;1.408;2022-08-20T03:58:24;3.30;;;3.00;;
15643;SDS011;7921;43.586;1.408;2022-08-20T04:00:52;3.00;;;2.80;;
15643;SDS011;7921;43.586;1.408;2022-08-20T04:03:17;2.90;;;2.70;;
15643;SDS011;7921;43.586;1.408;2022-08-20T04:05:43;3.20;;;3.00;;
15643;SDS011;7921;43.586;1.408;2022-08-20T04:08:10;3.40;;;3.10;;
15643;SDS011;7921;43.586;1.408;2022-08-20T04:10:40;3.47;;;3.00;;
15643;SDS011;7921;43.586;1.408;2022-08-20T04:13:06;3.40;;;3.08;;
15643;SDS011;7921;43.586;1.408;2022-08-20T04:15:33;5.85;;;3.30;;
15643;SDS011;7921;43.586;1.408;2022-08-20T04:17:59;3.42;;;3.22;;
15643;SDS011;7921;43.586;1.408;2022-08-20T04:20:25;3.57;;;3.27;;
15643;SDS011;7921;43.586;1.408;2022-08-20T04:22:54;2.97;;;2.78;;
15643;SDS011;7921;43.586;1.408;2022-08-20T04:25:20;4.47;;;2.95;;
15643;SDS011;7921;43.586;1.408;2022-08-20T04:27:46;3.92;;;3.53;;
15643;SDS011;7921;43.586;1.408;2022-08-20T04:30:13;3.08;;;2.88;;
15643;SDS011;7921;43.586;1.408;2022-08-20T04:32:39;3.72;;;3.30;;
15643;SDS011;7921;43.586;1.408;2022-08-20T04:35:07;3.22;;;3.03;;
15643;SDS011;7921;43.586;1.408;2022-08-20T04:37:35;3.63;;;3.38;;
15643;SDS011;7921;43.586;1.408;2022-08-20T04:40:04;4.35;;;3.25;;
15643;SDS011;7921;43.586;1.408;2022-08-20T04:42:50;3.40;;;3.10;;
15643;SDS011;7921;43.586;1.408;2022-08-20T04:45:16;3.60;;;3.30;;
15643;SDS011;7921;43.586;1.408;2022-08-20T04:47:41;3.40;;;3.10;;
15643;SDS011;7921;43.586;1.408;2022-08-20T04:50:08;3.40;;;3.13;;
15643;SDS011;7921;43.586;1.408;2022-08-20T04:52:34;3.70;;;3.38;;
15643;SDS011;7921;43.586;1.408;2022-08-20T04:55:02;3.40;;;3.10;;
15643;SDS011;7921;43.586;1.408;2022-08-20T04:57:28;3.40;;;3.20;;
15643;SDS011;7921;43.586;1.408;2022-08-20T04:59:53;4.95;;;3.15;;
15643;SDS011;7921;43.586;1.408;2022-08-20T05:02:19;3.45;;;3.25;;
15643;SDS011;7921;43.586;1.408;2022-08-20T05:04:45;3.28;;;3.08;;
15643;SDS011;7921;43.586;1.408;2022-08-20T05:07:11;3.45;;;3.22;;
15643;SDS011;7921;43.586;1.408;2022-08-20T05:09:42;4.38;;;3.17;;
15643;SDS011;7921;43.586;1.408;2022-08-20T05:12:08;3.47;;;3.20;;
15643;SDS011;7921;43.586;1.408;2022-08-20T05:14:34;4.15;;;3.15;;
15643;SDS011;7921;43.586;1.408;2022-08-20T05:17:03;3.70;;;3.13;;
15643;SDS011;7921;43.586;1.408;2022-08-20T05:19:32;3.65;;;3.45;;
15643;SDS011;7921;43.586;1.408;2022-08-20T05:21:58;4.03;;;3.65;;
15643;SDS011;7921;43.586;1.408;2022-08-20T05:24:24;3.45;;;3.15;;
15643;SDS011;7921;43.586;1.408;2022-08-20T05:26:50;3.28;;;3.08;;
15643;SDS011;7921;43.586;1.408;2022-08-20T05:29:15;3.95;;;3.50;;
15643;SDS011;7921;43.586;1.408;2022-08-20T05:31:41;3.80;;;3.50;;
15643;SDS011;7921;43.586;1.408;2022-08-20T05:34:07;4.00;;;3.70;;
15643;SDS011;7921;43.586;1.408;2022-08-20T05:36:35;4.78;;;3.30;;
15643;SDS011;7921;43.586;1.408;2022-08-20T05:39:01;4.40;;;4.10;;
15643;SDS011;7921;43.586;1.408;2022-08-20T05:41:26;3.50;;;3.20;;
15643;SDS011;7921;43.586;1.408;2022-08-20T05:43:53;3.63;;;3.33;;
15643;SDS011;7921;43.586;1.408;2022-08-20T05:46:19;3.42;;;3.15;;
15643;SDS011;7921;43.586;1.408;2022-08-20T05:48:45;3.58;;;3.22;;
15643;SDS011;7921;43.586;1.408;2022-08-20T05:51:10;3.30;;;3.03;;
15643;SDS011;7921;43.586;1.408;2022-08-20T05:53:35;4.25;;;3.30;;
15643;SDS011;7921;43.586;1.408;2022-08-20T05:56:01;3.78;;;3.33;;
15643;SDS011;7921;43.586;1.408;2022-08-20T05:58:27;3.35;;;3.10;;
15643;SDS011;7921;43.586;1.408;2022-08-20T06:00:56;4.22;;;3.50;;
15643;SDS011;7921;43.586;1.408;2022-08-20T06:03:23;3.78;;;3.30;;
15643;SDS011;7921;43.586;1.408;2022-08-20T06:06:07;3.95;;;3.65;;
15643;SDS011;7921;43.586;1.408;2022-08-20T06:08:32;3.40;;;3.20;;
15643;SDS011;7921;43.586;1.408;2022-08-20T06:10:58;3.75;;;3.38;;
15643;SDS011;7921;43.586;1.408;2022-08-20T06:13:23;4.15;;;3.75;;
15643;SDS011;7921;43.586;1.408;2022-08-20T06:15:49;4.50;;;3.40;;
15643;SDS011;7921;43.586;1.408;2022-08-20T06:18:14;3.55;;;3.25;;
15643;SDS011;7921;43.586;1.408;2022-08-20T06:20:40;3.67;;;3.38;;
15643;SDS011;7921;43.586;1.408;2022-08-20T06:23:06;4.65;;;3.10;;
15643;SDS011;7921;43.586;1.408;2022-08-20T06:25:32;3.47;;;2.97;;
15643;SDS011;7921;43.586;1.408;2022-08-20T06:27:59;3.50;;;3.30;;
15643;SDS011;7921;43.586;1.408;2022-08-20T06:30:25;5.78;;;3.10;;
15643;SDS011;7921;43.586;1.408;2022-08-20T06:32:50;3.58;;;3.28;;
15643;SDS011;7921;43.586;1.408;2022-08-20T06:35:17;3.67;;;3.38;;
15643;SDS011;7921;43.586;1.408;2022-08-20T06:37:43;3.15;;;2.83;;
15643;SDS011;7921;43.586;1.408;2022-08-20T06:40:10;3.25;;;3.05;;
15643;SDS011;7921;43.586;1.408;2022-08-20T06:42:38;3.45;;;3.15;;
15643;SDS011;7921;43.586;1.408;2022-08-20T06:45:05;3.08;;;2.88;;
15643;SDS011;7921;43.586;1.408;2022-08-20T06:47:31;3.53;;;3.25;;
15643;SDS011;7921;43.586;1.408;2022-08-20T06:49:57;3.33;;;3.03;;
15643;SDS011;7921;43.586;1.408;2022-08-20T06:52:22;3.72;;;3.42;;
15643;SDS011;7921;43.586;1.408;2022-08-20T06:54:48;3.15;;;2.88;;
15643;SDS011;7921;43.586;1.408;2022-08-20T06:57:13;3.15;;;2.92;;
15643;SDS011;7921;43.586;1.408;2022-08-20T06:59:39;3.17;;;2.88;;
15643;SDS011;7921;43.586;1.408;2022-08-20T07:02:05;3.90;;;2.83;;
15643;SDS011;7921;43.586;1.408;2022-08-20T07:04:31;3.22;;;2.92;;
15643;SDS011;7921;43.586;1.408;2022-08-20T07:06:57;3.25;;;2.78;;
15643;SDS011;7921;43.586;1.408;2022-08-20T07:09:23;2.88;;;2.67;;
15643;SDS011;7921;43.586;1.408;2022-08-20T07:11:49;3.75;;;3.08;;
15643;SDS011;7921;43.586;1.408;2022-08-20T07:14:16;2.63;;;2.40;;
15643;SDS011;7921;43.586;1.408;2022-08-20T07:16:42;2.90;;;2.70;;
15643;SDS011;7921;43.586;1.408;2022-08-20T07:19:08;2.75;;;2.55;;
15643;SDS011;7921;43.586;1.408;2022-08-20T07:21:34;4.13;;;2.60;;
15643;SDS011;7921;43.586;1.408;2022-08-20T07:24:00;2.60;;;2.40;;
15643;SDS011;7921;43.586;1.408;2022-08-20T07:26:25;2.70;;;2.50;;
15643;SDS011;7921;43.586;1.408;2022-08-20T07:28:51;2.70;;;2.50;;
15643;SDS011;7921;43.586;1.408;2022-08-20T07:31:16;2.83;;;2.63;;
15643;SDS011;7921;43.586;1.408;2022-08-20T07:34:01;1.98;;;1.88;;
15643;SDS011;7921;43.586;1.408;2022-08-20T07:36:27;2.85;;;1.92;;
15643;SDS011;7921;43.586;1.408;2022-08-20T07:38:52;1.90;;;1.80;;
15643;SDS011;7921;43.586;1.408;2022-08-20T07:41:18;2.50;;;2.00;;
15643;SDS011;7921;43.586;1.408;2022-08-20T07:43:44;1.52;;;1.42;;
15643;SDS011;7921;43.586;1.408;2022-08-20T07:46:11;1.58;;;1.30;;
15643;SDS011;7921;43.586;1.408;2022-08-20T07:48:39;2.17;;;1.48;;
15643;SDS011;7921;43.586;1.408;2022-08-20T07:51:07;1.40;;;1.30;;
15643;SDS011;7921;43.586;1.408;2022-08-20T07:53:34;1.70;;;1.60;;
15643;SDS011;7921;43.586;1.408;2022-08-20T07:56:01;1.40;;;1.30;;
15643;SDS011;7921;43.586;1.408;2022-08-20T07:58:29;1.48;;;1.23;;
15643;SDS011;7921;43.586;1.408;2022-08-20T08:00:55;1.27;;;1.17;;
15643;SDS011;7921;43.586;1.408;2022-08-20T08:03:20;1.50;;;0.90;;
15643;SDS011;7921;43.586;1.408;2022-08-20T08:05:46;0.90;;;0.90;;
15643;SDS011;7921;43.586;1.408;2022-08-20T08:08:15;2.08;;;1.35;;
15643;SDS011;7921;43.586;1.408;2022-08-20T08:10:45;0.90;;;0.80;;
15643;SDS011;7921;43.586;1.408;2022-08-20T08:13:11;1.38;;;0.90;;
15643;SDS011;7921;43.586;1.408;2022-08-20T08:15:38;0.88;;;0.88;;
15643;SDS011;7921;43.586;1.408;2022-08-20T08:18:07;0.93;;;0.88;;
15643;SDS011;7921;43.586;1.408;2022-08-20T08:20:38;1.02;;;0.90;;
15643;SDS011;7921;43.586;1.408;2022-08-20T08:23:06;1.00;;;0.85;;
15643;SDS011;7921;43.586;1.408;2022-08-20T08:25:34;1.88;;;0.90;;
15643;SDS011;7921;43.586;1.408;2022-08-20T08:28:00;0.85;;;0.73;;
15643;SDS011;7921;43.586;1.408;2022-08-20T08:30:27;1.55;;;1.00;;
15643;SDS011;7921;43.586;1.408;2022-08-20T08:32:53;1.20;;;0.90;;
15643;SDS011;7921;43.586;1.408;2022-08-20T08:35:38;0.70;;;0.70;;
15643;SDS011;7921;43.586;1.408;2022-08-20T08:38:04;1.13;;;1.02;;
15643;SDS011;7921;43.586;1.408;2022-08-20T08:40:30;0.70;;;0.70;;
15643;SDS011;7921;43.586;1.408;2022-08-20T08:42:56;0.73;;;0.73;;
15643;SDS011;7921;43.586;1.408;2022-08-20T08:45:33;0.77;;;0.65;;
15643;SDS011;7921;43.586;1.408;2022-08-20T08:48:03;1.30;;;1.00;;
15643;SDS011;7921;43.586;1.408;2022-08-20T08:50:29;0.80;;;0.80;;
15643;SDS011;7921;43.586;1.408;2022-08-20T08:52:57;0.75;;;0.70;;
15643;SDS011;7921;43.586;1.408;2022-08-20T08:55:25;1.65;;;0.63;;
15643;SDS011;7921;43.586;1.408;2022-08-20T08:57:53;0.60;;;0.60;;
15643;SDS011;7921;43.586;1.408;2022-08-20T09:00:20;0.70;;;0.70;;
15643;SDS011;7921;43.586;1.408;2022-08-20T09:02:55;0.60;;;0.60;;
15643;SDS011;7921;43.586;1.408;2022-08-20T09:05:26;1.88;;;0.65;;
15643;SDS011;7921;43.586;1.408;2022-08-20T09:08:11;0.50;;;0.50;;
15643;SDS011;7921;43.586;1.408;2022-08-20T09:10:38;0.68;;;0.60;;
15643;SDS011;7921;43.586;1.408;2022-08-20T09:13:04;1.40;;;0.85;;
15643;SDS011;7921;43.586;1.408;2022-08-20T09:15:30;0.80;;;0.75;;
15643;SDS011;7921;43.586;1.408;2022-08-20T09:17:55;0.90;;;0.75;;
15643;SDS011;7921;43.586;1.408;2022-08-20T09:20:21;0.52;;;0.50;;
15643;SDS011;7921;43.586;1.408;2022-08-20T09:22:46;0.70;;;0.70;;
15643;SDS011;7921;43.586;1.408;2022-08-20T09:25:12;1.15;;;0.70;;
15643;SDS011;7921;43.586;1.408;2022-08-20T09:27:37;0.77;;;0.65;;
15643;SDS011;7921;43.586;1.408;2022-08-20T09:30:03;0.60;;;0.60;;
15643;SDS011;7921;43.586;1.408;2022-08-20T09:32:29;1.77;;;0.80;;
15643;SDS011;7921;43.586;1.408;2022-08-20T09:34:54;1.25;;;0.70;;
15643;SDS011;7921;43.586;1.408;2022-08-20T09:37:20;0.60;;;0.60;;
15643;SDS011;7921;43.586;1.408;2022-08-20T09:39:47;1.27;;;0.60;;
15643;SDS011;7921;43.586;1.408;2022-08-20T09:42:15;2.83;;;0.68;;
15643;SDS011;7921;43.586;1.408;2022-08-20T09:44:42;0.93;;;0.60;;
15643;SDS011;7921;43.586;1.408;2022-08-20T09:47:07;0.60;;;0.60;;
15643;SDS011;7921;43.586;1.408;2022-08-20T09:49:33;0.85;;;0.60;;
15643;SDS011;7921;43.586;1.408;2022-08-20T09:52:01;0.47;;;0.47;;
15643;SDS011;7921;43.586;1.408;2022-08-20T09:54:28;1.15;;;0.60;;
15643;SDS011;7921;43.586;1.408;2022-08-20T09:56:57;2.70;;;0.70;;
15643;SDS011;7921;43.586;1.408;2022-08-20T09:59:23;1.95;;;0.60;;
15643;SDS011;7921;43.586;1.408;2022-08-20T10:01:49;0.82;;;0.50;;
15643;SDS011;7921;43.586;1.408;2022-08-20T10:04:14;0.98;;;0.68;;
15643;SDS011;7921;43.586;1.408;2022-08-20T10:06:40;0.50;;;0.50;;
15643;SDS011;7921;43.586;1.408;2022-08-20T10:09:05;1.50;;;0.55;;
15643;SDS011;7921;43.586;1.408;2022-08-20T10:11:31;0.50;;;0.50;;
15643;SDS011;7921;43.586;1.408;2022-08-20T10:13:57;0.60;;;0.60;;
15643;SDS011;7921;43.586;1.408;2022-08-20T10:16:22;0.63;;;0.45;;
15643;SDS011;7921;43.586;1.408;2022-08-20T10:18:48;1.30;;;0.70;;
15643;SDS011;7921;43.586;1.408;2022-08-20T10:21:13;0.90;;;0.55;;
15643;SDS011;7921;43.586;1.408;2022-08-20T10:23:39;2.50;;;0.47;;
15643;SDS011;7921;43.586;1.408;2022-08-20T10:26:08;0.68;;;0.68;;
15643;SDS011;7921;43.586;1.408;2022-08-20T10:28:34;0.90;;;0.90;;
15643;SDS011;7921;43.586;1.408;2022-08-20T10:31:00;0.52;;;0.52;;
15643;SDS011;7921;43.586;1.408;2022-08-20T10:33:25;0.52;;;0.52;;
15643;SDS011;7921;43.586;1.408;2022-08-20T10:35:51;0.60;;;0.47;;
15643;SDS011;7921;43.586;1.408;2022-08-20T10:38:16;0.40;;;0.40;;
15643;SDS011;7921;43.586;1.408;2022-08-20T10:40:41;0.60;;;0.50;;
15643;SDS011;7921;43.586;1.408;2022-08-20T10:43:07;0.88;;;0.70;;
15643;SDS011;7921;43.586;1.408;2022-08-20T10:45:32;3.15;;;0.70;;
15643;SDS011;7921;43.586;1.408;2022-08-20T10:47:58;0.60;;;0.52;;
15643;SDS011;7921;43.586;1.408;2022-08-20T10:50:24;0.55;;;0.40;;
15643;SDS011;7921;43.586;1.408;2022-08-20T10:52:49;0.40;;;0.40;;
15643;SDS011;7921;43.586;1.408;2022-08-20T10:55:15;0.50;;;0.40;;
15643;SDS011;7921;43.586;1.408;2022-08-20T10:57:41;0.60;;;0.40;;
15643;SDS011;7921;43.586;1.408;2022-08-20T11:00:07;0.30;;;0.30;;
15643;SDS011;7921;43.586;1.408;2022-08-20T11:02:35;1.48;;;0.50;;
15643;SDS011;7921;43.586;1.408;2022-08-20T11:05:01;0.40;;;0.40;;
15643;SDS011;7921;43.586;1.408;2022-08-20T11:07:30;0.50;;;0.50;;
15643;SDS011;7921;43.586;1.408;2022-08-20T11:09:57;0.55;;;0.40;;
15643;SDS011;7921;43.586;1.408;2022-08-20T11:12:23;0.47;;;0.38;;
15643;SDS011;7921;43.586;1.408;2022-08-20T11:14:49;0.75;;;0.55;;
15643;SDS011;7921;43.586;1.408;2022-08-20T11:17:22;0.50;;;0.50;;
15643;SDS011;7921;43.586;1.408;2022-08-20T11:19:53;0.40;;;0.40;;
15643;SDS011;7921;43.586;1.408;2022-08-20T11:22:19;0.40;;;0.40;;
15643;SDS011;7921;43.586;1.408;2022-08-20T11:24:45;0.30;;;0.30;;
15643;SDS011;7921;43.586;1.408;2022-08-20T11:27:16;0.40;;;0.40;;
15643;SDS011;7921;43.586;1.408;2022-08-20T11:29:46;2.67;;;0.60;;
15643;SDS011;7921;43.586;1.408;2022-08-20T11:32:11;0.30;;;0.30;;
15643;SDS011;7921;43.586;1.408;2022-08-20T11:34:36;0.50;;;0.50;;
15643;SDS011;7921;43.586;1.408;2022-08-20T11:37:02;0.30;;;0.30;;
15643;SDS011;7921;43.586;1.408;2022-08-20T11:39:27;0.45;;;0.45;;
15643;SDS011;7921;43.586;1.408;2022-08-20T11:41:53;1.23;;;0.50;;
15643;SDS011;7921;43.586;1.408;2022-08-20T11:44:18;0.40;;;0.40;;
15643;SDS011;7921;43.586;1.408;2022-08-20T11:46:43;1.23;;;0.57;;
15643;SDS011;7921;43.586;1.408;2022-08-20T11:49:09;0.47;;;0.47;;
15643;SDS011;7921;43.586;1.408;2022-08-20T11:51:34;1.00;;;0.60;;
15643;SDS011;7921;43.586;1.408;2022-08-20T11:54:01;0.35;;;0.35;;
15643;SDS011;7921;43.586;1.408;2022-08-20T11:56:27;0.55;;;0.55;;
15643;SDS011;7921;43.586;1.408;2022-08-20T11:58:53;0.40;;;0.40;;
15643;SDS011;7921;43.586;1.408;2022-08-20T12:01:18;0.45;;;0.45;;
15643;SDS011;7921;43.586;1.408;2022-08-20T12:03:43;0.45;;;0.40;;
15643;SDS011;7921;43.586;1.408;2022-08-20T12:06:09;0.40;;;0.40;;
15643;SDS011;7921;43.586;1.408;2022-08-20T12:08:35;0.80;;;0.68;;
15643;SDS011;7921;43.586;1.408;2022-08-20T12:11:01;1.75;;;0.50;;
15643;SDS011;7921;43.586;1.408;2022-08-20T12:13:28;0.40;;;0.40;;
15643;SDS011;7921;43.586;1.408;2022-08-20T12:15:55;0.73;;;0.50;;
15643;SDS011;7921;43.586;1.408;2022-08-20T12:18:21;0.35;;;0.30;;
15643;SDS011;7921;43.586;1.408;2022-08-20T12:20:47;1.15;;;0.45;;
15643;SDS011;7921;43.586;1.408;2022-08-20T12:23:12;0.40;;;0.40;;
15643;SDS011;7921;43.586;1.408;2022-08-20T12:25:38;0.50;;;0.50;;
15643;SDS011;7921;43.586;1.408;2022-08-20T12:28:03;0.90;;;0.40;;
15643;SDS011;7921;43.586;1.408;2022-08-20T12:30:30;0.50;;;0.50;;
15643;SDS011;7921;43.586;1.408;2022-08-20T12:32:56;0.20;;;0.20;;
15643;SDS011;7921;43.586;1.408;2022-08-20T12:35:22;0.30;;;0.30;;
15643;SDS011;7921;43.586;1.408;2022-08-20T12:37:48;1.17;;;0.30;;
15643;SDS011;7921;43.586;1.408;2022-08-20T12:40:15;0.60;;;0.40;;
15643;SDS011;7921;43.586;1.408;2022-08-20T12:42:42;0.50;;;0.50;;
15643;SDS011;7921;43.586;1.408;2022-08-20T12:45:08;0.40;;;0.40;;
15643;SDS011;7921;43.586;1.408;2022-08-20T12:47:36;3.35;;;0.50;;
15643;SDS011;7921;43.586;1.408;2022-08-20T12:50:08;0.47;;;0.40;;
15643;SDS011;7921;43.586;1.408;2022-08-20T12:52:35;3.33;;;0.50;;
15643;SDS011;7921;43.586;1.408;2022-08-20T12:55:01;0.82;;;0.40;;
15643;SDS011;7921;43.586;1.408;2022-08-20T12:57:28;0.35;;;0.35;;
15643;SDS011;7921;43.586;1.408;2022-08-20T13:02:33;0.93;;;0.40;;
15643;SDS011;7921;43.586;1.408;2022-08-20T13:04:59;0.65;;;0.38;;
15643;SDS011;7921;43.586;1.408;2022-08-20T13:07:24;0.52;;;0.47;;
15643;SDS011;7921;43.586;1.408;2022-08-20T13:09:50;0.52;;;0.50;;
15643;SDS011;7921;43.586;1.408;2022-08-20T13:12:15;0.50;;;0.40;;
15643;SDS011;7921;43.586;1.408;2022-08-20T13:14:41;1.48;;;0.45;;
15643;SDS011;7921;43.586;1.408;2022-08-20T13:17:07;0.40;;;0.35;;
15643;SDS011;7921;43.586;1.408;2022-08-20T13:19:34;0.40;;;0.40;;
15643;SDS011;7921;43.586;1.408;2022-08-20T13:22:00;0.40;;;0.40;;
15643;SDS011;7921;43.586;1.408;2022-08-20T13:24:26;0.68;;;0.40;;
15643;SDS011;7921;43.586;1.408;2022-08-20T13:26:51;0.70;;;0.70;;
15643;SDS011;7921;43.586;1.408;2022-08-20T13:29:17;0.40;;;0.40;;
15643;SDS011;7921;43.586;1.408;2022-08-20T13:31:43;0.40;;;0.40;;
15643;SDS011;7921;43.586;1.408;2022-08-20T13:34:09;0.30;;;0.30;;
15643;SDS011;7921;43.586;1.408;2022-08-20T13:36:35;0.57;;;0.38;;
15643;SDS011;7921;43.586;1.408;2022-08-20T13:39:01;0.40;;;0.40;;
15643;SDS011;7921;43.586;1.408;2022-08-20T13:41:27;0.40;;;0.40;;
15643;SDS011;7921;43.586;1.408;2022-08-20T13:43:53;2.05;;;0.40;;
15643;SDS011;7921;43.586;1.408;2022-08-20T13:46:18;0.40;;;0.40;;
15643;SDS011;7921;43.586;1.408;2022-08-20T13:48:43;1.27;;;0.50;;
15643;SDS011;7921;43.586;1.408;2022-08-20T13:51:09;0.40;;;0.40;;
15643;SDS011;7921;43.586;1.408;2022-08-20T13:53:34;0.40;;;0.40;;
15643;SDS011;7921;43.586;1.408;2022-08-20T13:56:00;0.35;;;0.30;;
15643;SDS011;7921;43.586;1.408;2022-08-20T13:58:25;0.30;;;0.30;;
15643;SDS011;7921;43.586;1.408;2022-08-20T14:00:51;0.40;;;0.40;;
15643;SDS011;7921;43.586;1.408;2022-08-20T14:03:16;0.30;;;0.30;;
15643;SDS011;7921;43.586;1.408;2022-08-20T14:05:41;1.15;;;0.30;;
15643;SDS011;7921;43.586;1.408;2022-08-20T14:08:18;0.40;;;0.40;;
15643;SDS011;7921;43.586;1.408;2022-08-20T14:10:45;0.38;;;0.35;;
15643;SDS011;7921;43.586;1.408;2022-08-20T14:13:14;0.40;;;0.40;;
15643;SDS011;7921;43.586;1.408;2022-08-20T14:15:41;0.60;;;0.50;;
15643;SDS011;7921;43.586;1.408;2022-08-20T14:18:06;0.40;;;0.40;;
15643;SDS011;7921;43.586;1.408;2022-08-20T14:20:32;0.50;;;0.50;;
15643;SDS011;7921;43.586;1.408;2022-08-20T14:22:58;0.25;;;0.25;;
15643;SDS011;7921;43.586;1.408;2022-08-20T14:25:24;1.48;;;0.45;;
15643;SDS011;7921;43.586;1.408;2022-08-20T14:27:51;0.45;;;0.43;;
15643;SDS011;7921;43.586;1.408;2022-08-20T14:30:18;0.50;;;0.38;;
15643;SDS011;7921;43.586;1.408;2022-08-20T14:32:46;0.95;;;0.50;;
15643;SDS011;7921;43.586;1.408;2022-08-20T14:35:12;0.93;;;0.40;;
15643;SDS011;7921;43.586;1.408;2022-08-20T14:37:38;1.05;;;0.40;;
15643;SDS011;7921;43.586;1.408;2022-08-20T14:40:07;1.17;;;0.32;;
15643;SDS011;7921;43.586;1.408;2022-08-20T14:42:34;0.40;;;0.40;;
15643;SDS011;7921;43.586;1.408;2022-08-20T14:45:00;0.38;;;0.38;;
15643;SDS011;7921;43.586;1.408;2022-08-20T14:47:31;0.30;;;0.30;;
15643;SDS011;7921;43.586;1.408;2022-08-20T14:50:00;0.68;;;0.30;;
15643;SDS011;7921;43.586;1.408;2022-08-20T14:52:28;0.93;;;0.50;;
15643;SDS011;7921;43.586;1.408;2022-08-20T14:54:55;0.30;;;0.30;;
15643;SDS011;7921;43.586;1.408;2022-08-20T14:57:20;0.30;;;0.30;;
15643;SDS011;7921;43.586;1.408;2022-08-20T14:59:46;1.27;;;0.40;;
15643;SDS011;7921;43.586;1.408;2022-08-20T15:02:13;1.58;;;0.30;;
15643;SDS011;7921;43.586;1.408;2022-08-20T15:04:39;3.35;;;3.15;;
15643;SDS011;7921;43.586;1.408;2022-08-20T15:07:06;1.63;;;1.52;;
15643;SDS011;7921;43.586;1.408;2022-08-20T15:09:35;1.00;;;0.50;;
15643;SDS011;7921;43.586;1.408;2022-08-20T15:12:01;0.40;;;0.40;;
15643;SDS011;7921;43.586;1.408;2022-08-20T15:14:26;0.40;;;0.40;;